createdAt,value
2022-11-15T00:00:19.826Z,1011.27
2022-11-15T00:01:19.841Z,1011.24
2022-11-15T00:02:19.893Z,1011.24
2022-11-15T00:03:19.815Z,1011.16
2022-11-15T00:04:19.799Z,1011.16
2022-11-15T00:05:19.763Z,1011.18
2022-11-15T00:06:19.756Z,1011.21
2022-11-15T00:07:48.463Z,1011.17
2022-11-15T00:08:20.839Z,1011.21
2022-11-15T00:09:19.740Z,1011.34
2022-11-15T00:10:19.706Z,1011.27
2022-11-15T00:11:19.697Z,1011.21
2022-11-15T00:12:19.684Z,1011.21
2022-11-15T00:13:19.696Z,1011.21
2022-11-15T00:14:19.690Z,1011.23
2022-11-15T00:15:19.651Z,1011.13
2022-11-15T00:16:19.643Z,1011.15
2022-11-15T00:17:19.632Z,1011.06
2022-11-15T00:18:19.618Z,1011.13
2022-11-15T00:19:19.606Z,1011.07
2022-11-15T00:20:19.623Z,1011.11
2022-11-15T00:21:19.604Z,1011.12
2022-11-15T00:22:19.588Z,1011.10
2022-11-15T00:23:19.566Z,1011.07
2022-11-15T00:24:19.551Z,1011.02
2022-11-15T00:25:19.544Z,1010.99
2022-11-15T00:26:19.552Z,1011.00
2022-11-15T00:27:19.518Z,1010.94
2022-11-15T00:28:19.528Z,1010.86
2022-11-15T00:29:19.537Z,1010.94
2022-11-15T00:30:19.487Z,1010.82
2022-11-15T00:31:19.498Z,1010.76
2022-11-15T00:32:19.462Z,1010.83
2022-11-15T00:33:19.450Z,1010.87
2022-11-15T00:34:19.520Z,1010.94
2022-11-15T00:35:19.429Z,1010.90
2022-11-15T00:36:19.441Z,1010.86
2022-11-15T00:37:19.406Z,1010.89
2022-11-15T00:38:19.398Z,1010.84
2022-11-15T00:39:19.384Z,1010.79
2022-11-15T00:40:19.380Z,1010.83
2022-11-15T00:41:19.416Z,1010.83
2022-11-15T00:42:19.354Z,1010.83
2022-11-15T00:43:19.344Z,1010.79
2022-11-15T00:44:19.333Z,1010.78
2022-11-15T00:45:19.368Z,1010.80
2022-11-15T00:46:19.331Z,1010.78
2022-11-15T00:47:19.298Z,1010.85
2022-11-15T00:48:19.284Z,1010.88
2022-11-15T00:49:19.297Z,1010.83
2022-11-15T00:50:19.267Z,1010.80
2022-11-15T00:51:19.254Z,1010.77
2022-11-15T00:52:19.248Z,1010.77
2022-11-15T00:53:19.232Z,1010.78
2022-11-15T00:54:19.234Z,1010.74
2022-11-15T00:55:19.228Z,1010.75
2022-11-15T00:56:19.201Z,1010.70
2022-11-15T00:57:19.187Z,1010.71
2022-11-15T00:58:19.175Z,1010.77
2022-11-15T00:59:19.161Z,1010.73
2022-11-15T01:00:19.174Z,1010.76
2022-11-15T01:01:19.199Z,1010.86
2022-11-15T01:02:19.127Z,1010.71
2022-11-15T01:03:19.120Z,1010.67
2022-11-15T01:04:19.107Z,1010.69
2022-11-15T01:05:19.131Z,1010.66
2022-11-15T01:06:19.087Z,1010.69
2022-11-15T01:07:19.124Z,1010.68
2022-11-15T01:08:19.063Z,1010.67
2022-11-15T01:09:19.054Z,1010.71
2022-11-15T01:10:19.058Z,1010.69
2022-11-15T01:11:19.052Z,1010.67
2022-11-15T01:12:19.018Z,1010.75
2022-11-15T01:13:19.009Z,1010.69
2022-11-15T01:14:24.191Z,1010.68
2022-11-15T01:15:19.989Z,1010.71
2022-11-15T01:16:18.993Z,1010.69
2022-11-15T01:17:18.987Z,1010.67
2022-11-15T01:18:18.953Z,1010.68
2022-11-15T01:19:18.940Z,1010.75
2022-11-15T01:20:18.949Z,1010.64
2022-11-15T01:21:18.913Z,1010.59
2022-11-15T01:22:18.905Z,1010.48
2022-11-15T01:23:18.896Z,1010.56
2022-11-15T01:24:18.882Z,1010.54
2022-11-15T01:25:18.888Z,1010.55
2022-11-15T01:26:18.863Z,1010.54
2022-11-15T01:27:18.852Z,1010.52
2022-11-15T01:28:18.839Z,1010.49
2022-11-15T01:29:18.824Z,1010.45
2022-11-15T01:30:18.839Z,1010.47
2022-11-15T01:31:18.807Z,1010.44
2022-11-15T01:32:18.791Z,1010.47
2022-11-15T01:33:18.802Z,1010.38
2022-11-15T01:34:18.781Z,1010.42
2022-11-15T01:35:18.785Z,1010.44
2022-11-15T01:36:18.753Z,1010.32
2022-11-15T01:37:18.739Z,1010.30
2022-11-15T01:38:18.724Z,1010.27
2022-11-15T01:39:18.741Z,1010.32
2022-11-15T01:40:18.708Z,1010.29
2022-11-15T01:41:18.700Z,1010.27
2022-11-15T01:42:18.686Z,1010.26
2022-11-15T01:43:18.670Z,1010.30
2022-11-15T01:44:18.682Z,1010.23
2022-11-15T01:45:18.654Z,1010.23
2022-11-15T01:46:18.640Z,1010.22
2022-11-15T01:47:18.627Z,1010.27
2022-11-15T01:48:18.620Z,1010.17
2022-11-15T01:49:18.676Z,1010.20
2022-11-15T01:50:18.594Z,1010.20
2022-11-15T01:51:18.583Z,1010.12
2022-11-15T01:52:18.575Z,1010.18
2022-11-15T01:53:18.564Z,1010.15
2022-11-15T01:54:18.575Z,1010.19
2022-11-15T01:55:18.571Z,1010.16
2022-11-15T01:56:18.528Z,1010.12
2022-11-15T01:57:18.524Z,1010.09
2022-11-15T01:58:18.513Z,1010.09
2022-11-15T01:59:18.524Z,1010.06
2022-11-15T02:00:18.525Z,1010.02
2022-11-15T02:01:18.527Z,1010.06
2022-11-15T02:02:18.468Z,1010.04
2022-11-15T02:03:18.455Z,1009.99
2022-11-15T02:04:18.445Z,1010.02
2022-11-15T02:05:18.461Z,1010.00
2022-11-15T02:06:18.443Z,1009.92
2022-11-15T02:07:18.500Z,1009.99
2022-11-15T02:08:18.424Z,1009.88
2022-11-15T02:09:18.398Z,1009.93
2022-11-15T02:10:18.395Z,1009.88
2022-11-15T02:11:18.375Z,1009.85
2022-11-15T02:12:18.357Z,1009.85
2022-11-15T02:13:18.373Z,1009.83
2022-11-15T02:14:18.345Z,1009.90
2022-11-15T02:15:18.330Z,1009.94
2022-11-15T02:16:18.314Z,1009.82
2022-11-15T02:17:18.305Z,1009.89
2022-11-15T02:18:18.319Z,1009.93
2022-11-15T02:19:18.285Z,1009.91
2022-11-15T02:20:18.275Z,1009.96
2022-11-15T02:21:18.286Z,1009.95
2022-11-15T02:22:18.256Z,1009.88
2022-11-15T02:23:18.264Z,1009.88
2022-11-15T02:24:18.236Z,1009.86
2022-11-15T02:25:18.222Z,1009.85
2022-11-15T02:26:18.205Z,1009.91
2022-11-15T02:27:18.197Z,1009.94
2022-11-15T02:28:18.211Z,1009.96
2022-11-15T02:29:18.205Z,1009.98
2022-11-15T02:30:18.164Z,1010.01
2022-11-15T02:31:18.150Z,1010.02
2022-11-15T02:32:18.142Z,1009.97
2022-11-15T02:33:18.128Z,1009.97
2022-11-15T02:34:18.144Z,1010.00
2022-11-15T02:35:18.114Z,1010.00
2022-11-15T02:36:18.103Z,1009.99
2022-11-15T02:37:18.131Z,1009.99
2022-11-15T02:38:18.076Z,1009.95
2022-11-15T02:39:18.073Z,1009.91
2022-11-15T02:40:18.074Z,1009.99
2022-11-15T02:41:18.039Z,1009.95
2022-11-15T02:42:18.051Z,1009.94
2022-11-15T02:43:18.016Z,1009.92
2022-11-15T02:44:18.006Z,1009.96
2022-11-15T02:45:17.994Z,1009.94
2022-11-15T02:46:17.988Z,1009.89
2022-11-15T02:47:18.003Z,1009.86
2022-11-15T02:48:17.958Z,1009.89
2022-11-15T02:49:17.950Z,1009.83
2022-11-15T02:50:17.974Z,1009.80
2022-11-15T02:51:17.931Z,1009.84
2022-11-15T02:52:17.917Z,1009.81
2022-11-15T02:53:17.928Z,1009.80
2022-11-15T02:54:17.896Z,1009.75
2022-11-15T02:55:17.886Z,1009.78
2022-11-15T02:56:17.893Z,1009.79
2022-11-15T02:57:17.868Z,1009.84
2022-11-15T02:58:17.869Z,1009.79
2022-11-15T02:59:17.842Z,1009.83
2022-11-15T03:00:17.836Z,1009.66
2022-11-15T03:01:17.898Z,1009.78
2022-11-15T03:02:17.811Z,1009.76
2022-11-15T03:03:17.819Z,1009.73
2022-11-15T03:04:17.824Z,1009.71
2022-11-15T03:05:17.776Z,1009.73
2022-11-15T03:06:17.787Z,1009.73
2022-11-15T03:07:17.834Z,1009.79
2022-11-15T03:08:17.771Z,1009.76
2022-11-15T03:09:17.751Z,1009.74
2022-11-15T03:10:17.726Z,1009.71
2022-11-15T03:11:17.732Z,1009.78
2022-11-15T03:12:17.697Z,1009.71
2022-11-15T03:13:17.719Z,1009.74
2022-11-15T03:14:17.676Z,1009.76
2022-11-15T03:15:17.668Z,1009.76
2022-11-15T03:16:17.653Z,1009.77
2022-11-15T03:17:17.646Z,1009.75
2022-11-15T03:18:17.632Z,1009.75
2022-11-15T03:19:17.655Z,1009.73
2022-11-15T03:20:17.628Z,1009.72
2022-11-15T03:21:17.598Z,1009.71
2022-11-15T03:22:17.597Z,1009.73
2022-11-15T03:23:17.602Z,1009.76
2022-11-15T03:24:19.809Z,1009.74
2022-11-15T03:25:18.577Z,1009.75
2022-11-15T03:26:17.547Z,1009.71
2022-11-15T03:27:17.539Z,1009.69
2022-11-15T03:28:17.544Z,1009.69
2022-11-15T03:29:17.509Z,1009.66
2022-11-15T03:30:17.505Z,1009.69
2022-11-15T03:31:17.521Z,1009.70
2022-11-15T03:32:17.485Z,1009.64
2022-11-15T03:33:17.470Z,1009.66
2022-11-15T03:34:17.455Z,1009.67
2022-11-15T03:35:17.455Z,1009.62
2022-11-15T03:36:17.435Z,1009.67
2022-11-15T03:37:17.456Z,1009.65
2022-11-15T03:38:17.495Z,1009.61
2022-11-15T03:39:20.556Z,1009.66
2022-11-15T03:40:17.392Z,1009.67
2022-11-15T03:41:17.399Z,1009.70
2022-11-15T03:42:17.378Z,1009.58
2022-11-15T03:43:17.363Z,1009.69
2022-11-15T03:44:17.357Z,1009.68
2022-11-15T03:45:17.367Z,1009.58
2022-11-15T03:46:17.336Z,1009.69
2022-11-15T03:47:17.327Z,1009.60
2022-11-15T03:48:17.310Z,1009.62
2022-11-15T03:49:17.303Z,1009.65
2022-11-15T03:50:17.307Z,1009.68
2022-11-15T03:51:17.271Z,1009.61
2022-11-15T03:52:17.263Z,1009.62
2022-11-15T03:53:17.252Z,1009.63
2022-11-15T03:54:17.240Z,1009.61
2022-11-15T03:55:17.250Z,1009.61
2022-11-15T03:56:17.219Z,1009.58
2022-11-15T03:57:17.254Z,1009.56
2022-11-15T03:58:17.208Z,1009.63
2022-11-15T03:59:17.189Z,1009.62
2022-11-15T04:00:17.197Z,1009.52
2022-11-15T04:01:17.230Z,1009.50
2022-11-15T04:02:17.183Z,1009.55
2022-11-15T04:03:17.147Z,1009.57
2022-11-15T04:04:17.218Z,1009.55
2022-11-15T04:05:17.122Z,1009.61
2022-11-15T04:06:17.108Z,1009.53
2022-11-15T04:07:17.172Z,1009.46
2022-11-15T04:08:17.090Z,1009.58
2022-11-15T04:09:17.083Z,1009.61
2022-11-15T04:10:17.070Z,1009.48
2022-11-15T04:11:17.065Z,1009.52
2022-11-15T04:12:17.084Z,1009.52
2022-11-15T04:13:17.062Z,1009.54
2022-11-15T04:14:17.028Z,1009.55
2022-11-15T04:15:17.019Z,1009.48
2022-11-15T04:16:17.010Z,1009.55
2022-11-15T04:17:17.000Z,1009.54
2022-11-15T04:18:17.007Z,1009.50
2022-11-15T04:19:16.976Z,1009.52
2022-11-15T04:20:16.963Z,1009.52
2022-11-15T04:21:16.952Z,1009.53
2022-11-15T04:22:16.937Z,1009.52
2022-11-15T04:23:16.953Z,1009.50
2022-11-15T04:24:16.919Z,1009.43
2022-11-15T04:25:21.979Z,1009.49
2022-11-15T04:26:17.893Z,1009.51
2022-11-15T04:27:16.885Z,1009.47
2022-11-15T04:28:16.900Z,1009.37
2022-11-15T04:29:16.901Z,1009.34
2022-11-15T04:30:16.871Z,1009.32
2022-11-15T04:31:16.838Z,1009.36
2022-11-15T04:32:16.852Z,1009.44
2022-11-15T04:33:16.821Z,1009.43
2022-11-15T04:34:16.817Z,1009.40
2022-11-15T04:35:16.800Z,1009.43
2022-11-15T04:36:16.817Z,1009.41
2022-11-15T04:37:16.778Z,1009.39
2022-11-15T04:38:16.771Z,1009.40
2022-11-15T04:39:16.755Z,1009.39
2022-11-15T04:40:16.752Z,1009.49
2022-11-15T04:41:16.766Z,1009.48
2022-11-15T04:42:16.726Z,1009.44
2022-11-15T04:43:16.719Z,1009.42
2022-11-15T04:44:16.701Z,1009.42
2022-11-15T04:45:16.714Z,1009.39
2022-11-15T04:46:16.698Z,1009.40
2022-11-15T04:47:16.668Z,1009.38
2022-11-15T04:48:16.667Z,1009.37
2022-11-15T04:49:16.651Z,1009.37
2022-11-15T04:50:16.643Z,1009.34
2022-11-15T04:51:16.659Z,1009.31
2022-11-15T04:52:16.624Z,1009.28
2022-11-15T04:53:16.627Z,1009.29
2022-11-15T04:54:16.602Z,1009.32
2022-11-15T04:55:16.585Z,1009.33
2022-11-15T04:56:16.576Z,1009.34
2022-11-15T04:57:16.637Z,1009.27
2022-11-15T04:58:16.565Z,1009.30
2022-11-15T04:59:16.551Z,1009.30
2022-11-15T05:00:16.533Z,1009.30
2022-11-15T05:01:16.649Z,1009.29
2022-11-15T05:02:16.539Z,1009.30
2022-11-15T05:03:16.509Z,1009.32
2022-11-15T05:04:16.489Z,1009.30
2022-11-15T05:05:16.481Z,1009.36
2022-11-15T05:06:16.476Z,1009.34
2022-11-15T05:07:16.585Z,1009.34
2022-11-15T05:08:16.450Z,1009.33
2022-11-15T05:09:16.440Z,1009.31
2022-11-15T05:10:16.427Z,1009.37
2022-11-15T05:11:16.421Z,1009.37
2022-11-15T05:12:16.427Z,1009.40
2022-11-15T05:13:16.397Z,1009.35
2022-11-15T05:14:16.412Z,1009.31
2022-11-15T05:15:16.375Z,1009.29
2022-11-15T05:16:16.360Z,1009.34
2022-11-15T05:17:16.403Z,1009.35
2022-11-15T05:18:22.174Z,1009.37
2022-11-15T05:19:17.325Z,1009.31
2022-11-15T05:20:16.317Z,1009.33
2022-11-15T05:21:16.339Z,1009.37
2022-11-15T05:22:16.297Z,1009.38
2022-11-15T05:23:16.292Z,1009.35
2022-11-15T05:24:16.274Z,1009.37
2022-11-15T05:25:16.271Z,1009.36
2022-11-15T05:26:16.279Z,1009.32
2022-11-15T05:27:16.247Z,1009.32
2022-11-15T05:28:16.231Z,1009.36
2022-11-15T05:29:16.221Z,1009.35
2022-11-15T05:30:16.235Z,1009.30
2022-11-15T05:31:16.208Z,1009.36
2022-11-15T05:32:16.196Z,1009.32
2022-11-15T05:33:16.218Z,1009.36
2022-11-15T05:34:16.169Z,1009.35
2022-11-15T05:35:16.186Z,1009.34
2022-11-15T05:36:16.152Z,1009.33
2022-11-15T05:37:16.140Z,1009.30
2022-11-15T05:38:16.153Z,1009.27
2022-11-15T05:39:16.118Z,1009.29
2022-11-15T05:40:16.108Z,1009.30
2022-11-15T05:41:16.121Z,1009.38
2022-11-15T05:42:16.100Z,1009.29
2022-11-15T05:43:16.102Z,1009.32
2022-11-15T05:44:16.060Z,1009.32
2022-11-15T05:45:16.056Z,1009.34
2022-11-15T05:46:16.046Z,1009.28
2022-11-15T05:47:16.054Z,1009.31
2022-11-15T05:48:16.041Z,1009.26
2022-11-15T05:49:16.036Z,1009.28
2022-11-15T05:50:15.999Z,1009.35
2022-11-15T05:51:15.990Z,1009.35
2022-11-15T05:52:16.003Z,1009.35
2022-11-15T05:53:15.995Z,1009.39
2022-11-15T05:54:15.957Z,1009.36
2022-11-15T05:55:15.951Z,1009.39
2022-11-15T05:56:15.938Z,1009.34
2022-11-15T05:57:15.925Z,1009.36
2022-11-15T05:58:15.934Z,1009.32
2022-11-15T05:59:15.905Z,1009.34
2022-11-15T06:00:15.890Z,1009.38
2022-11-15T06:01:15.884Z,1009.33
2022-11-15T06:02:16.007Z,1009.36
2022-11-15T06:03:15.881Z,1009.39
2022-11-15T06:04:15.851Z,1009.31
2022-11-15T06:05:15.854Z,1009.38
2022-11-15T06:06:16.612Z,1009.34
2022-11-15T06:07:15.851Z,1009.35
2022-11-15T06:08:15.836Z,1009.38
2022-11-15T06:09:15.801Z,1009.41
2022-11-15T06:10:15.784Z,1009.42
2022-11-15T06:11:15.774Z,1009.45
2022-11-15T06:12:15.765Z,1009.43
2022-11-15T06:13:15.777Z,1009.38
2022-11-15T06:14:15.746Z,1009.38
2022-11-15T06:15:15.731Z,1009.35
2022-11-15T06:16:15.724Z,1009.36
2022-11-15T06:17:15.714Z,1009.39
2022-11-15T06:18:15.728Z,1009.42
2022-11-15T06:19:15.695Z,1009.40
2022-11-15T06:20:15.680Z,1009.39
2022-11-15T06:21:15.685Z,1009.39
2022-11-15T06:22:15.658Z,1009.38
2022-11-15T06:23:15.674Z,1009.44
2022-11-15T06:24:15.642Z,1009.42
2022-11-15T06:25:15.628Z,1009.48
2022-11-15T06:26:15.626Z,1009.42
2022-11-15T06:27:15.606Z,1009.47
2022-11-15T06:28:15.601Z,1009.44
2022-11-15T06:29:15.606Z,1009.47
2022-11-15T06:30:15.575Z,1009.38
2022-11-15T06:31:15.579Z,1009.42
2022-11-15T06:32:15.551Z,1009.37
2022-11-15T06:33:15.559Z,1009.41
2022-11-15T06:34:15.562Z,1009.37
2022-11-15T06:35:15.518Z,1009.44
2022-11-15T06:36:17.710Z,1009.42
2022-11-15T06:37:15.516Z,1009.44
2022-11-15T06:38:15.491Z,1009.40
2022-11-15T06:39:15.498Z,1009.36
2022-11-15T06:40:15.468Z,1009.48
2022-11-15T06:41:15.452Z,1009.53
2022-11-15T06:42:15.443Z,1009.46
2022-11-15T06:43:15.435Z,1009.53
2022-11-15T06:44:15.443Z,1009.62
2022-11-15T06:45:15.412Z,1009.60
2022-11-15T06:46:15.403Z,1009.57
2022-11-15T06:47:15.391Z,1009.55
2022-11-15T06:48:15.380Z,1009.58
2022-11-15T06:49:15.384Z,1009.62
2022-11-15T06:50:15.368Z,1009.52
2022-11-15T06:51:15.393Z,1009.51
2022-11-15T06:52:15.337Z,1009.55
2022-11-15T06:53:15.344Z,1009.45
2022-11-15T06:54:15.316Z,1009.49
2022-11-15T06:55:15.310Z,1009.47
2022-11-15T06:56:15.314Z,1009.51
2022-11-15T06:57:15.283Z,1009.49
2022-11-15T06:58:15.275Z,1009.54
2022-11-15T06:59:15.260Z,1009.56
2022-11-15T07:00:15.252Z,1009.54
2022-11-15T07:01:15.313Z,1009.58
2022-11-15T07:02:15.237Z,1009.58
2022-11-15T07:03:15.225Z,1009.65
2022-11-15T07:04:15.212Z,1009.57
2022-11-15T07:05:15.202Z,1009.56
2022-11-15T07:06:15.210Z,1009.59
2022-11-15T07:07:15.236Z,1009.62
2022-11-15T07:08:15.167Z,1009.67
2022-11-15T07:09:15.191Z,1009.68
2022-11-15T07:10:15.158Z,1009.66
2022-11-15T07:11:15.154Z,1009.62
2022-11-15T07:12:15.127Z,1009.64
2022-11-15T07:13:15.112Z,1009.67
2022-11-15T07:14:15.105Z,1009.66
2022-11-15T07:15:15.114Z,1009.68
2022-11-15T07:16:15.108Z,1009.70
2022-11-15T07:17:15.076Z,1009.66
2022-11-15T07:18:15.066Z,1009.69
2022-11-15T07:19:15.045Z,1009.73
2022-11-15T07:20:15.039Z,1009.73
2022-11-15T07:21:15.050Z,1009.73
2022-11-15T07:22:15.022Z,1009.75
2022-11-15T07:23:15.008Z,1009.72
2022-11-15T07:24:15.001Z,1009.74
2022-11-15T07:25:15.005Z,1009.78
2022-11-15T07:26:15.001Z,1009.80
2022-11-15T07:27:14.970Z,1009.77
2022-11-15T07:28:14.953Z,1009.80
2022-11-15T07:29:14.945Z,1009.79
2022-11-15T07:30:15.748Z,1009.80
2022-11-15T07:31:14.939Z,1009.89
2022-11-15T07:32:14.913Z,1009.81
2022-11-15T07:33:14.902Z,1009.80
2022-11-15T07:34:14.890Z,1009.79
2022-11-15T07:35:14.901Z,1009.80
2022-11-15T07:36:14.869Z,1009.80
2022-11-15T07:37:14.882Z,1009.81
2022-11-15T07:38:14.851Z,1009.85
2022-11-15T07:39:14.834Z,1009.85
2022-11-15T07:40:14.847Z,1009.81
2022-11-15T07:41:14.843Z,1009.76
2022-11-15T07:42:14.835Z,1009.78
2022-11-15T07:43:14.802Z,1009.77
2022-11-15T07:44:14.791Z,1009.75
2022-11-15T07:45:14.776Z,1009.70
2022-11-15T07:46:14.785Z,1009.71
2022-11-15T07:47:14.758Z,1009.68
2022-11-15T07:48:14.744Z,1009.73
2022-11-15T07:49:14.730Z,1009.67
2022-11-15T07:50:14.727Z,1009.70
2022-11-15T07:51:14.872Z,1009.63
2022-11-15T07:52:14.698Z,1009.68
2022-11-15T07:53:14.689Z,1009.61
2022-11-15T07:54:14.678Z,1009.64
2022-11-15T07:55:14.685Z,1009.65
2022-11-15T07:56:14.653Z,1009.61
2022-11-15T07:57:14.671Z,1009.72
2022-11-15T07:58:14.644Z,1009.65
2022-11-15T07:59:14.626Z,1009.65
2022-11-15T08:00:14.643Z,1009.77
2022-11-15T08:01:14.814Z,1009.74
2022-11-15T08:02:14.716Z,1009.67
2022-11-15T08:03:14.590Z,1009.68
2022-11-15T08:04:14.570Z,1009.60
2022-11-15T08:05:14.561Z,1009.65
2022-11-15T08:06:14.573Z,1009.58
2022-11-15T08:07:14.621Z,1009.56
2022-11-15T08:08:14.534Z,1009.52
2022-11-15T08:09:14.515Z,1009.61
2022-11-15T08:10:14.504Z,1009.53
2022-11-15T08:11:14.519Z,1009.52
2022-11-15T08:12:14.484Z,1009.55
2022-11-15T08:13:14.547Z,1009.54
2022-11-15T08:14:14.467Z,1009.57
2022-11-15T08:15:14.453Z,1009.58
2022-11-15T08:16:14.464Z,1009.59
2022-11-15T08:17:14.431Z,1009.54
2022-11-15T08:18:14.424Z,1009.54
2022-11-15T08:19:14.411Z,1009.53
2022-11-15T08:20:14.412Z,1009.60
2022-11-15T08:21:18.285Z,1009.54
2022-11-15T08:22:14.381Z,1009.55
2022-11-15T08:23:14.387Z,1009.49
2022-11-15T08:24:14.357Z,1009.51
2022-11-15T08:25:14.349Z,1009.50
2022-11-15T08:26:14.362Z,1009.53
2022-11-15T08:27:14.402Z,1009.46
2022-11-15T08:28:14.314Z,1009.50
2022-11-15T08:29:14.347Z,1009.52
2022-11-15T08:30:14.297Z,1009.48
2022-11-15T08:31:14.282Z,1009.52
2022-11-15T08:32:14.270Z,1009.53
2022-11-15T08:33:14.261Z,1009.55
2022-11-15T08:34:14.271Z,1009.52
2022-11-15T08:35:14.302Z,1009.45
2022-11-15T08:36:14.227Z,1009.48
2022-11-15T08:37:14.218Z,1009.48
2022-11-15T08:38:14.210Z,1009.41
2022-11-15T08:39:14.189Z,1009.45
2022-11-15T08:40:14.215Z,1009.46
2022-11-15T08:41:14.169Z,1009.43
2022-11-15T08:42:19.490Z,1009.47
2022-11-15T08:43:15.150Z,1009.46
2022-11-15T08:44:14.139Z,1009.41
2022-11-15T08:45:14.149Z,1009.50
2022-11-15T08:46:14.148Z,1009.39
2022-11-15T08:47:14.115Z,1009.39
2022-11-15T08:48:14.098Z,1009.45
2022-11-15T08:49:14.086Z,1009.43
2022-11-15T08:50:14.075Z,1009.48
2022-11-15T08:51:14.088Z,1009.46
2022-11-15T08:52:14.056Z,1009.49
2022-11-15T08:53:14.040Z,1009.47
2022-11-15T08:54:14.027Z,1009.48
2022-11-15T08:55:16.833Z,1009.46
2022-11-15T08:56:14.031Z,1009.46
2022-11-15T08:57:13.998Z,1009.45
2022-11-15T08:58:13.986Z,1009.44
2022-11-15T08:59:13.974Z,1009.43
2022-11-15T09:00:13.969Z,1009.47
2022-11-15T09:01:18.408Z,1009.42
2022-11-15T09:02:13.948Z,1009.55
2022-11-15T09:03:13.934Z,1009.52
2022-11-15T09:04:13.923Z,1009.53
2022-11-15T09:05:13.924Z,1009.50
2022-11-15T09:06:13.923Z,1009.52
2022-11-15T09:07:13.939Z,1009.45
2022-11-15T09:08:45.621Z,1009.52
2022-11-15T09:09:14.870Z,1009.51
2022-11-15T09:10:13.861Z,1009.47
2022-11-15T09:11:13.897Z,1009.48
2022-11-15T09:12:13.841Z,1009.43
2022-11-15T09:13:13.827Z,1009.47
2022-11-15T09:14:13.848Z,1009.49
2022-11-15T09:15:13.803Z,1009.47
2022-11-15T09:16:13.820Z,1009.45
2022-11-15T09:17:13.801Z,1009.50
2022-11-15T09:18:13.769Z,1009.49
2022-11-15T09:19:13.759Z,1009.49
2022-11-15T09:20:13.751Z,1009.56
2022-11-15T09:21:13.765Z,1009.48
2022-11-15T09:22:13.731Z,1009.45
2022-11-15T09:23:13.713Z,1009.46
2022-11-15T09:24:13.702Z,1009.44
2022-11-15T09:25:13.698Z,1009.40
2022-11-15T09:26:13.704Z,1009.43
2022-11-15T09:27:13.673Z,1009.48
2022-11-15T09:28:13.660Z,1009.41
2022-11-15T09:29:13.652Z,1009.42
2022-11-15T09:30:13.638Z,1009.36
2022-11-15T09:31:16.819Z,1009.38
2022-11-15T09:32:14.620Z,1009.42
2022-11-15T09:33:13.632Z,1009.46
2022-11-15T09:34:13.594Z,1009.45
2022-11-15T09:35:13.580Z,1009.51
2022-11-15T09:36:13.598Z,1009.50
2022-11-15T09:37:13.564Z,1009.49
2022-11-15T09:38:13.575Z,1009.53
2022-11-15T09:39:13.533Z,1009.49
2022-11-15T09:40:13.550Z,1009.47
2022-11-15T09:41:13.523Z,1009.49
2022-11-15T09:42:13.506Z,1009.53
2022-11-15T09:43:13.523Z,1009.47
2022-11-15T09:44:13.486Z,1009.51
2022-11-15T09:45:13.474Z,1009.49
2022-11-15T09:46:13.462Z,1009.44
2022-11-15T09:47:13.453Z,1009.48
2022-11-15T09:48:13.465Z,1009.44
2022-11-15T09:49:13.442Z,1009.51
2022-11-15T09:50:13.413Z,1009.49
2022-11-15T09:51:13.405Z,1009.48
2022-11-15T09:52:13.396Z,1009.40
2022-11-15T09:53:13.405Z,1009.41
2022-11-15T09:55:14.362Z,1009.38
2022-11-15T09:56:13.350Z,1009.41
2022-11-15T09:57:16.192Z,1009.39
2022-11-15T09:58:13.349Z,1009.43
2022-11-15T09:59:13.318Z,1009.44
2022-11-15T10:01:14.345Z,1009.34
2022-11-15T10:02:13.282Z,1009.34
2022-11-15T10:03:13.295Z,1009.35
2022-11-15T10:04:13.267Z,1009.39
2022-11-15T10:05:13.337Z,1009.32
2022-11-15T10:06:13.278Z,1009.33
2022-11-15T10:07:13.302Z,1009.31
2022-11-15T10:08:13.218Z,1009.29
2022-11-15T10:09:13.211Z,1009.22
2022-11-15T10:10:13.191Z,1009.24
2022-11-15T10:12:14.168Z,1009.28
2022-11-15T10:13:13.169Z,1009.25
2022-11-15T10:14:13.155Z,1009.27
2022-11-15T10:15:13.142Z,1009.25
2022-11-15T10:16:13.185Z,1009.22
2022-11-15T10:17:13.122Z,1009.22
2022-11-15T10:18:13.106Z,1009.17
2022-11-15T10:19:13.109Z,1009.16
2022-11-15T10:20:13.086Z,1009.17
2022-11-15T10:21:13.116Z,1009.13
2022-11-15T10:22:13.072Z,1009.10
2022-11-15T10:23:13.056Z,1009.09
2022-11-15T10:24:13.045Z,1009.08
2022-11-15T10:25:13.033Z,1009.12
2022-11-15T10:26:13.043Z,1009.09
2022-11-15T10:27:13.010Z,1009.02
2022-11-15T10:28:13.002Z,1009.03
2022-11-15T10:29:12.987Z,1008.98
2022-11-15T10:30:12.979Z,1008.98
2022-11-15T10:31:14.482Z,1009.02
2022-11-15T10:32:12.957Z,1008.87
2022-11-15T10:33:12.946Z,1008.93
2022-11-15T10:34:12.933Z,1008.89
2022-11-15T10:35:12.924Z,1008.90
2022-11-15T10:36:12.913Z,1008.85
2022-11-15T10:37:12.946Z,1008.84
2022-11-15T10:38:12.907Z,1008.90
2022-11-15T10:39:12.882Z,1008.85
2022-11-15T10:40:12.869Z,1008.81
2022-11-15T10:41:12.857Z,1008.81
2022-11-15T10:42:17.601Z,1008.79
2022-11-15T10:43:12.839Z,1008.85
2022-11-15T10:44:12.822Z,1008.80
2022-11-15T10:45:12.820Z,1008.79
2022-11-15T10:46:39.436Z,1008.78
2022-11-15T10:47:13.795Z,1008.75
2022-11-15T10:48:12.792Z,1008.71
2022-11-15T10:49:12.803Z,1008.68
2022-11-15T10:50:12.759Z,1008.66
2022-11-15T10:51:12.767Z,1008.66
2022-11-15T10:52:12.742Z,1008.66
2022-11-15T10:53:12.749Z,1008.60
2022-11-15T10:54:15.907Z,1008.64
2022-11-15T10:55:13.709Z,1008.63
2022-11-15T10:56:12.693Z,1008.55
2022-11-15T10:57:12.689Z,1008.62
2022-11-15T10:58:12.676Z,1008.56
2022-11-15T10:59:12.688Z,1008.56
2022-11-15T11:00:12.653Z,1008.57
2022-11-15T11:01:12.769Z,1008.58
2022-11-15T11:02:12.635Z,1008.56
2022-11-15T11:03:12.626Z,1008.53
2022-11-15T11:04:12.625Z,1008.53
2022-11-15T11:05:12.604Z,1008.47
2022-11-15T11:06:12.585Z,1008.50
2022-11-15T11:07:12.597Z,1008.46
2022-11-15T11:08:12.594Z,1008.46
2022-11-15T11:09:12.571Z,1008.44
2022-11-15T11:10:36.139Z,1008.41
2022-11-15T11:11:13.526Z,1008.39
2022-11-15T11:12:12.521Z,1008.42
2022-11-15T11:13:12.529Z,1008.38
2022-11-15T11:14:12.519Z,1008.34
2022-11-15T11:15:12.492Z,1008.37
2022-11-15T11:16:12.475Z,1008.37
2022-11-15T11:17:12.464Z,1008.38
2022-11-15T11:18:12.462Z,1008.36
2022-11-15T11:19:12.472Z,1008.34
2022-11-15T11:20:12.433Z,1008.29
2022-11-15T11:21:12.422Z,1008.32
2022-11-15T11:22:12.412Z,1008.25
2022-11-15T11:23:12.430Z,1008.31
2022-11-15T11:24:12.383Z,1008.32
2022-11-15T11:25:12.396Z,1008.23
2022-11-15T11:26:12.364Z,1008.28
2022-11-15T11:27:12.354Z,1008.26
2022-11-15T11:28:12.375Z,1008.24
2022-11-15T11:29:12.336Z,1008.26
2022-11-15T11:30:12.321Z,1008.25
2022-11-15T11:31:12.311Z,1008.23
2022-11-15T11:32:12.298Z,1008.16
2022-11-15T11:33:12.311Z,1008.21
2022-11-15T11:34:12.279Z,1008.19
2022-11-15T11:35:12.272Z,1008.19
2022-11-15T11:36:12.255Z,1008.23
2022-11-15T11:37:12.246Z,1008.17
2022-11-15T11:38:14.663Z,1008.16
2022-11-15T11:39:12.226Z,1008.21
2022-11-15T11:40:12.206Z,1008.24
2022-11-15T11:41:12.221Z,1008.25
2022-11-15T11:42:12.194Z,1008.29
2022-11-15T11:43:12.214Z,1008.23
2022-11-15T11:44:12.167Z,1008.24
2022-11-15T11:45:12.157Z,1008.22
2022-11-15T11:46:12.147Z,1008.24
2022-11-15T11:47:12.138Z,1008.27
2022-11-15T11:48:12.147Z,1008.26
2022-11-15T11:49:12.119Z,1008.18
2022-11-15T11:50:12.102Z,1008.15
2022-11-15T11:51:12.093Z,1008.26
2022-11-15T11:52:12.080Z,1008.24
2022-11-15T11:53:12.095Z,1008.23
2022-11-15T11:54:12.231Z,1008.21
2022-11-15T11:55:12.053Z,1008.14
2022-11-15T11:56:12.036Z,1008.19
2022-11-15T11:57:12.069Z,1008.18
2022-11-15T11:58:12.040Z,1008.14
2022-11-15T11:59:12.011Z,1008.10
2022-11-15T12:00:11.993Z,1008.17
2022-11-15T12:01:13.031Z,1008.07
2022-11-15T12:02:12.090Z,1008.10
2022-11-15T12:03:12.163Z,1008.08
2022-11-15T12:04:11.959Z,1008.05
2022-11-15T12:05:11.938Z,1008.06
2022-11-15T12:06:11.933Z,1007.99
2022-11-15T12:07:11.979Z,1007.99
2022-11-15T12:08:11.924Z,1008.01